sensor_id;sensor_type;location;lat;lon;timestamp;pressure;altitude;pressure_sealevel;temperature;humidity
12358;BME280;6243;51.244;6.774;2023-04-06T00:00:34;150780.91;;;13.16;45.21
12358;BME280;6243;51.244;6.774;2023-04-06T00:02:59;150755.41;;;13.06;45.29
12358;BME280;6243;51.244;6.774;2023-04-06T00:05:26;150807.63;;;13.27;44.80
12358;BME280;6243;51.244;6.774;2023-04-06T00:07:52;150748.97;;;13.04;45.01
12358;BME280;6243;51.244;6.774;2023-04-06T00:10:17;150787.22;;;13.19;45.07
12358;BME280;6243;51.244;6.774;2023-04-06T00:12:43;150921.00;;;13.72;44.12
12358;BME280;6243;51.244;6.774;2023-04-06T00:15:09;150864.94;;;13.49;44.53
12358;BME280;6243;51.244;6.774;2023-04-06T00:17:35;150831.84;;;13.36;44.14
12358;BME280;6243;51.244;6.774;2023-04-06T00:20:00;150881.50;;;13.56;43.90
12358;BME280;6243;51.244;6.774;2023-04-06T00:22:27;150868.75;;;13.51;43.44
12358;BME280;6243;51.244;6.774;2023-04-06T00:24:53;150847.13;;;13.42;44.16
12358;BME280;6243;51.244;6.774;2023-04-06T00:27:18;150876.41;;;13.54;43.94
12358;BME280;6243;51.244;6.774;2023-04-06T00:29:44;150873.84;;;13.53;43.33
12358;BME280;6243;51.244;6.774;2023-04-06T00:32:09;150884.09;;;13.57;42.99
12358;BME280;6243;51.244;6.774;2023-04-06T00:34:35;150887.88;;;13.59;41.96
12358;BME280;6243;51.244;6.774;2023-04-06T00:37:00;150834.38;;;13.37;41.96
12358;BME280;6243;51.244;6.774;2023-04-06T00:39:27;150898.06;;;13.63;41.94
12358;BME280;6243;51.244;6.774;2023-04-06T00:41:53;150892.97;;;13.61;42.05
12358;BME280;6243;51.244;6.774;2023-04-06T00:44:19;150927.38;;;13.74;42.17
12358;BME280;6243;51.244;6.774;2023-04-06T00:46:45;150937.56;;;13.78;42.15
12358;BME280;6243;51.244;6.774;2023-04-06T00:49:10;150899.34;;;13.63;42.42
12358;BME280;6243;51.244;6.774;2023-04-06T00:51:36;150833.13;;;13.37;43.41
12358;BME280;6243;51.244;6.774;2023-04-06T00:54:01;150898.06;;;13.63;42.33
12358;BME280;6243;51.244;6.774;2023-04-06T00:56:28;150881.50;;;13.56;42.93
12358;BME280;6243;51.244;6.774;2023-04-06T00:58:54;150857.28;;;13.46;43.17
12358;BME280;6243;51.244;6.774;2023-04-06T01:01:19;150980.91;;;13.95;41.58
12358;BME280;6243;51.244;6.774;2023-04-06T01:03:45;151000.03;;;14.03;41.37
12358;BME280;6243;51.244;6.774;2023-04-06T01:06:11;150905.72;;;13.66;42.21
12358;BME280;6243;51.244;6.774;2023-04-06T01:08:36;150994.97;;;14.01;41.97
12358;BME280;6243;51.244;6.774;2023-04-06T01:11:02;150952.88;;;13.84;41.73
12358;BME280;6243;51.244;6.774;2023-04-06T01:13:29;150961.78;;;13.88;41.88
12358;BME280;6243;51.244;6.774;2023-04-06T01:15:54;150882.78;;;13.57;42.48
12358;BME280;6243;51.244;6.774;2023-04-06T01:18:25;150850.91;;;13.44;42.66
12358;BME280;6243;51.244;6.774;2023-04-06T01:20:51;150943.94;;;13.81;41.83
12358;BME280;6243;51.244;6.774;2023-04-06T01:23:18;151017.91;;;14.10;41.91
12358;BME280;6243;51.244;6.774;2023-04-06T01:25:43;151011.53;;;14.07;42.02
12358;BME280;6243;51.244;6.774;2023-04-06T01:28:08;150904.44;;;13.65;42.85
12358;BME280;6243;51.244;6.774;2023-04-06T01:30:34;151015.31;;;14.09;42.18
12358;BME280;6243;51.244;6.774;2023-04-06T01:32:59;150996.19;;;14.01;42.25
12358;BME280;6243;51.244;6.774;2023-04-06T01:35:26;151061.22;;;14.27;42.11
12358;BME280;6243;51.244;6.774;2023-04-06T01:37:51;151155.63;;;14.64;41.28
12358;BME280;6243;51.244;6.774;2023-04-06T01:40:18;151126.28;;;14.53;41.53
12358;BME280;6243;51.244;6.774;2023-04-06T01:42:44;151176.00;;;14.72;41.52
12358;BME280;6243;51.244;6.774;2023-04-06T01:45:10;151080.41;;;14.35;41.64
12358;BME280;6243;51.244;6.774;2023-04-06T01:47:35;151074.03;;;14.32;41.98
12358;BME280;6243;51.244;6.774;2023-04-06T01:50:01;151063.78;;;14.28;41.79
12358;BME280;6243;51.244;6.774;2023-04-06T01:52:26;151059.94;;;14.27;42.17
12358;BME280;6243;51.244;6.774;2023-04-06T01:54:52;151053.53;;;14.24;42.14
12358;BME280;6243;51.244;6.774;2023-04-06T01:57:18;151025.50;;;14.13;42.59
12358;BME280;6243;51.244;6.774;2023-04-06T01:59:44;151086.78;;;14.37;41.90
12358;BME280;6243;51.244;6.774;2023-04-06T02:02:09;150987.28;;;13.98;42.60
12358;BME280;6243;51.244;6.774;2023-04-06T02:04:35;151011.53;;;14.07;42.44
12358;BME280;6243;51.244;6.774;2023-04-06T02:07:00;151051.03;;;14.23;42.16
12358;BME280;6243;51.244;6.774;2023-04-06T02:09:26;151057.41;;;14.26;42.06
12358;BME280;6243;51.244;6.774;2023-04-06T02:11:51;151110.97;;;14.47;41.91
12358;BME280;6243;51.244;6.774;2023-04-06T02:14:18;150915.91;;;13.70;43.58
12358;BME280;6243;51.244;6.774;2023-04-06T02:16:44;150956.69;;;13.86;43.47
12358;BME280;6243;51.244;6.774;2023-04-06T02:19:09;151000.03;;;14.03;42.57
12358;BME280;6243;51.244;6.774;2023-04-06T02:21:34;150971.97;;;13.92;43.26
12358;BME280;6243;51.244;6.774;2023-04-06T02:24:00;151047.16;;;14.21;42.60
12358;BME280;6243;51.244;6.774;2023-04-06T02:26:25;151105.88;;;14.45;42.38
12358;BME280;6243;51.244;6.774;2023-04-06T02:28:51;151081.63;;;14.35;42.47
12358;BME280;6243;51.244;6.774;2023-04-06T02:31:18;151005.13;;;14.05;43.40
12358;BME280;6243;51.244;6.774;2023-04-06T02:33:43;151036.97;;;14.17;43.10
12358;BME280;6243;51.244;6.774;2023-04-06T02:36:09;151086.78;;;14.37;42.78
12358;BME280;6243;51.244;6.774;2023-04-06T02:38:34;151089.31;;;14.38;42.27
12358;BME280;6243;51.244;6.774;2023-04-06T02:41:00;151086.78;;;14.37;42.47
12358;BME280;6243;51.244;6.774;2023-04-06T02:43:25;150968.16;;;13.90;42.48
12358;BME280;6243;51.244;6.774;2023-04-06T02:45:51;151017.91;;;14.10;42.95
12358;BME280;6243;51.244;6.774;2023-04-06T02:48:17;150987.28;;;13.98;42.62
12358;BME280;6243;51.244;6.774;2023-04-06T02:50:43;150994.97;;;14.01;42.55
12358;BME280;6243;51.244;6.774;2023-04-06T02:53:09;151016.59;;;14.09;42.47
12358;BME280;6243;51.244;6.774;2023-04-06T02:55:34;150982.19;;;13.96;42.61
12358;BME280;6243;51.244;6.774;2023-04-06T02:58:00;150863.66;;;13.49;43.66
12358;BME280;6243;51.244;6.774;2023-04-06T03:00:25;150988.56;;;13.98;42.52
12358;BME280;6243;51.244;6.774;2023-04-06T03:02:51;150952.88;;;13.84;42.33
12358;BME280;6243;51.244;6.774;2023-04-06T03:05:18;150899.34;;;13.63;42.78
12358;BME280;6243;51.244;6.774;2023-04-06T03:07:43;150877.72;;;13.55;43.00
12358;BME280;6243;51.244;6.774;2023-04-06T03:10:09;150989.81;;;13.99;42.19
12358;BME280;6243;51.244;6.774;2023-04-06T03:12:34;150816.53;;;13.30;43.31
12358;BME280;6243;51.244;6.774;2023-04-06T03:15:00;150956.69;;;13.86;42.08
12358;BME280;6243;51.244;6.774;2023-04-06T03:17:25;151030.59;;;14.15;41.85
12358;BME280;6243;51.244;6.774;2023-04-06T03:19:51;150612.75;;;12.50;43.71
12358;BME280;6243;51.244;6.774;2023-04-06T03:22:19;150894.25;;;13.61;42.38
12358;BME280;6243;51.244;6.774;2023-04-06T03:24:44;150907.00;;;13.66;42.51
12358;BME280;6243;51.244;6.774;2023-04-06T03:27:10;150815.28;;;13.30;42.36
12358;BME280;6243;51.244;6.774;2023-04-06T03:29:35;150863.66;;;13.49;42.63
12358;BME280;6243;51.244;6.774;2023-04-06T03:32:01;150875.13;;;13.53;42.50
12358;BME280;6243;51.244;6.774;2023-04-06T03:34:26;150834.38;;;13.37;42.83
12358;BME280;6243;51.244;6.774;2023-04-06T03:36:52;150949.03;;;13.83;42.25
12358;BME280;6243;51.244;6.774;2023-04-06T03:39:19;150500.75;;;12.05;44.08
12358;BME280;6243;51.244;6.774;2023-04-06T03:41:44;150709.50;;;12.88;43.49
12358;BME280;6243;51.244;6.774;2023-04-06T03:44:10;150787.22;;;13.19;42.70
12358;BME280;6243;51.244;6.774;2023-04-06T03:46:35;150780.91;;;13.16;42.95
12358;BME280;6243;51.244;6.774;2023-04-06T03:49:01;150791.06;;;13.20;42.87
12358;BME280;6243;51.244;6.774;2023-04-06T03:51:27;150833.13;;;13.37;42.80
12358;BME280;6243;51.244;6.774;2023-04-06T03:53:52;150960.50;;;13.87;42.16
12358;BME280;6243;51.244;6.774;2023-04-06T03:56:19;150964.34;;;13.89;41.81
12358;BME280;6243;51.244;6.774;2023-04-06T03:58:45;150733.72;;;12.98;43.47
12358;BME280;6243;51.244;6.774;2023-04-06T04:01:10;150769.44;;;13.12;42.32
12358;BME280;6243;51.244;6.774;2023-04-06T04:03:36;150757.97;;;13.07;42.66
12358;BME280;6243;51.244;6.774;2023-04-06T04:06:02;150898.06;;;13.63;42.05
12358;BME280;6243;51.244;6.774;2023-04-06T04:08:27;150887.88;;;13.59;42.16
12358;BME280;6243;51.244;6.774;2023-04-06T04:10:53;150671.34;;;12.73;43.64
12358;BME280;6243;51.244;6.774;2023-04-06T04:13:20;150634.38;;;12.58;43.87
12358;BME280;6243;51.244;6.774;2023-04-06T04:15:45;150642.03;;;12.61;43.59
12358;BME280;6243;51.244;6.774;2023-04-06T04:18:10;150750.28;;;13.04;43.39
12358;BME280;6243;51.244;6.774;2023-04-06T04:20:36;150879.00;;;13.55;42.15
12358;BME280;6243;51.244;6.774;2023-04-06T04:23:01;150876.41;;;13.54;41.81
12358;BME280;6243;51.244;6.774;2023-04-06T04:25:27;150629.31;;;12.56;43.58
12358;BME280;6243;51.244;6.774;2023-04-06T04:27:52;150803.81;;;13.25;43.08
12358;BME280;6243;51.244;6.774;2023-04-06T04:30:19;150768.16;;;13.11;43.17
12358;BME280;6243;51.244;6.774;2023-04-06T04:32:45;150828.00;;;13.35;43.29
12358;BME280;6243;51.244;6.774;2023-04-06T04:35:10;150810.19;;;13.28;43.11
12358;BME280;6243;51.244;6.774;2023-04-06T04:37:36;150661.09;;;12.69;43.96
12358;BME280;6243;51.244;6.774;2023-04-06T04:40:01;150856.06;;;13.46;42.48
12358;BME280;6243;51.244;6.774;2023-04-06T04:42:27;150608.91;;;12.48;44.14
12358;BME280;6243;51.244;6.774;2023-04-06T04:44:52;150472.75;;;11.94;45.52
12358;BME280;6243;51.244;6.774;2023-04-06T04:47:19;150438.41;;;11.81;45.53
12358;BME280;6243;51.244;6.774;2023-04-06T04:49:44;150457.50;;;11.88;45.68
12358;BME280;6243;51.244;6.774;2023-04-06T04:52:10;150401.44;;;11.66;45.48
12358;BME280;6243;51.244;6.774;2023-04-06T04:54:35;150616.56;;;12.51;43.82
12358;BME280;6243;51.244;6.774;2023-04-06T04:57:01;150368.38;;;11.53;45.76
12358;BME280;6243;51.244;6.774;2023-04-06T04:59:26;150615.28;;;12.51;43.73
12358;BME280;6243;51.244;6.774;2023-04-06T05:01:52;150605.09;;;12.47;43.87
12358;BME280;6243;51.244;6.774;2023-04-06T05:04:19;150475.31;;;11.95;45.03
12358;BME280;6243;51.244;6.774;2023-04-06T05:06:44;150640.75;;;12.61;44.16
12358;BME280;6243;51.244;6.774;2023-04-06T05:09:10;150491.84;;;12.02;44.16
12358;BME280;6243;51.244;6.774;2023-04-06T05:11:35;150603.81;;;12.46;43.86
12358;BME280;6243;51.244;6.774;2023-04-06T05:14:01;150588.56;;;12.40;43.84
12358;BME280;6243;51.244;6.774;2023-04-06T05:16:26;150649.66;;;12.64;43.15
12358;BME280;6243;51.244;6.774;2023-04-06T05:18:52;150788.50;;;13.19;42.09
12358;BME280;6243;51.244;6.774;2023-04-06T05:21:19;150521.13;;;12.14;43.32
12358;BME280;6243;51.244;6.774;2023-04-06T05:23:44;150709.50;;;12.88;42.42
12358;BME280;6243;51.244;6.774;2023-04-06T05:26:10;150523.66;;;12.15;43.65
12358;BME280;6243;51.244;6.774;2023-04-06T05:28:35;150657.31;;;12.67;43.22
12358;BME280;6243;51.244;6.774;2023-04-06T05:31:01;150737.53;;;12.99;42.37
12358;BME280;6243;51.244;6.774;2023-04-06T05:33:27;150638.19;;;12.60;42.96
12358;BME280;6243;51.244;6.774;2023-04-06T05:35:52;150783.41;;;13.17;41.82
12358;BME280;6243;51.244;6.774;2023-04-06T05:38:19;150866.22;;;13.50;41.70
12358;BME280;6243;51.244;6.774;2023-04-06T05:40:44;150858.56;;;13.47;41.17
12358;BME280;6243;51.244;6.774;2023-04-06T05:43:10;150811.44;;;13.28;42.24
12358;BME280;6243;51.244;6.774;2023-04-06T05:45:35;150892.97;;;13.61;41.52
12358;BME280;6243;51.244;6.774;2023-04-06T05:48:01;150775.75;;;13.14;40.88
12358;BME280;6243;51.244;6.774;2023-04-06T05:50:26;150834.38;;;13.37;41.81
12358;BME280;6243;51.244;6.774;2023-04-06T05:52:52;150778.34;;;13.15;41.69
12358;BME280;6243;51.244;6.774;2023-04-06T05:55:19;150863.66;;;13.49;41.49
12358;BME280;6243;51.244;6.774;2023-04-06T05:57:44;150955.41;;;13.85;40.97
12358;BME280;6243;51.244;6.774;2023-04-06T06:00:11;151008.94;;;14.06;40.71
12358;BME280;6243;51.244;6.774;2023-04-06T06:02:37;150963.06;;;13.88;40.72
12358;BME280;6243;51.244;6.774;2023-04-06T06:05:02;150801.25;;;13.24;41.52
12358;BME280;6243;51.244;6.774;2023-04-06T06:07:28;150929.94;;;13.75;41.00
12358;BME280;6243;51.244;6.774;2023-04-06T06:09:56;150901.91;;;13.64;41.18
12358;BME280;6243;51.244;6.774;2023-04-06T06:12:23;150997.47;;;14.02;40.62
12358;BME280;6243;51.244;6.774;2023-04-06T06:14:49;151007.66;;;14.06;40.86
12358;BME280;6243;51.244;6.774;2023-04-06T06:17:15;150951.59;;;13.84;40.28
12358;BME280;6243;51.244;6.774;2023-04-06T06:19:40;150820.38;;;13.32;41.57
12358;BME280;6243;51.244;6.774;2023-04-06T06:22:06;150835.66;;;13.38;41.43
12358;BME280;6243;51.244;6.774;2023-04-06T06:24:31;151031.88;;;14.15;40.70
12358;BME280;6243;51.244;6.774;2023-04-06T06:26:57;151067.63;;;14.30;40.11
12358;BME280;6243;51.244;6.774;2023-04-06T06:29:23;151017.91;;;14.10;40.32
12358;BME280;6243;51.244;6.774;2023-04-06T06:31:49;150806.34;;;13.26;41.20
12358;BME280;6243;51.244;6.774;2023-04-06T06:34:14;150957.97;;;13.86;41.18
12358;BME280;6243;51.244;6.774;2023-04-06T06:36:40;150959.25;;;13.87;40.60
12358;BME280;6243;51.244;6.774;2023-04-06T06:39:05;150991.09;;;13.99;40.14
12358;BME280;6243;51.244;6.774;2023-04-06T06:41:31;150965.63;;;13.89;40.68
12358;BME280;6243;51.244;6.774;2023-04-06T06:43:57;150954.16;;;13.85;40.95
12358;BME280;6243;51.244;6.774;2023-04-06T06:46:24;151121.19;;;14.51;40.43
12358;BME280;6243;51.244;6.774;2023-04-06T06:48:49;151105.88;;;14.45;40.32
12358;BME280;6243;51.244;6.774;2023-04-06T06:51:15;150806.34;;;13.26;41.77
12358;BME280;6243;51.244;6.774;2023-04-06T06:53:40;150910.81;;;13.68;41.70
12358;BME280;6243;51.244;6.774;2023-04-06T06:56:06;150854.78;;;13.45;41.50
12358;BME280;6243;51.244;6.774;2023-04-06T06:58:31;150828.00;;;13.35;41.27
12358;BME280;6243;51.244;6.774;2023-04-06T07:00:57;151015.31;;;14.09;40.52
12358;BME280;6243;51.244;6.774;2023-04-06T07:03:25;150907.00;;;13.66;40.83
12358;BME280;6243;51.244;6.774;2023-04-06T07:05:51;150955.41;;;13.85;41.11
12358;BME280;6243;51.244;6.774;2023-04-06T07:08:16;150971.97;;;13.92;40.82
12358;BME280;6243;51.244;6.774;2023-04-06T07:10:42;151117.34;;;14.49;40.51
12358;BME280;6243;51.244;6.774;2023-04-06T07:13:07;151372.50;;;15.50;39.60
12358;BME280;6243;51.244;6.774;2023-04-06T07:15:33;151366.13;;;15.47;39.14
12358;BME280;6243;51.244;6.774;2023-04-06T07:17:58;151303.56;;;15.23;39.29
12358;BME280;6243;51.244;6.774;2023-04-06T07:20:25;151349.50;;;15.41;39.21
12358;BME280;6243;51.244;6.774;2023-04-06T07:22:51;151551.22;;;16.20;38.18
12358;BME280;6243;51.244;6.774;2023-04-06T07:25:17;151475.88;;;15.91;37.95
12358;BME280;6243;51.244;6.774;2023-04-06T07:27:42;151295.91;;;15.20;39.59
12358;BME280;6243;51.244;6.774;2023-04-06T07:30:08;151358.50;;;15.44;38.14
12358;BME280;6243;51.244;6.774;2023-04-06T07:32:34;151252.53;;;15.03;39.48
12358;BME280;6243;51.244;6.774;2023-04-06T07:34:59;151174.72;;;14.72;39.88
12358;BME280;6243;51.244;6.774;2023-04-06T07:37:26;151547.41;;;16.19;37.95
12358;BME280;6243;51.244;6.774;2023-04-06T07:39:51;151678.97;;;16.71;37.96
12358;BME280;6243;51.244;6.774;2023-04-06T07:42:17;151530.81;;;16.12;38.32
12358;BME280;6243;51.244;6.774;2023-04-06T07:44:42;151768.41;;;17.06;37.62
12358;BME280;6243;51.244;6.774;2023-04-06T07:47:08;151530.81;;;16.12;37.65
12358;BME280;6243;51.244;6.774;2023-04-06T07:49:33;151440.13;;;15.77;38.77
12358;BME280;6243;51.244;6.774;2023-04-06T07:51:59;151361.03;;;15.45;39.19
12358;BME280;6243;51.244;6.774;2023-04-06T07:54:26;151719.84;;;16.87;37.77
12358;BME280;6243;51.244;6.774;2023-04-06T07:56:51;151552.50;;;16.21;37.83
12358;BME280;6243;51.244;6.774;2023-04-06T07:59:17;151615.06;;;16.46;37.60
12358;BME280;6243;51.244;6.774;2023-04-06T08:01:42;151751.81;;;16.99;37.62
12358;BME280;6243;51.244;6.774;2023-04-06T08:04:08;151750.53;;;16.99;37.30
12358;BME280;6243;51.244;6.774;2023-04-06T08:06:33;151800.31;;;17.19;36.89
12358;BME280;6243;51.244;6.774;2023-04-06T08:08:59;151681.53;;;16.72;37.60
12358;BME280;6243;51.244;6.774;2023-04-06T08:11:26;151456.78;;;15.83;38.22
12358;BME280;6243;51.244;6.774;2023-04-06T08:13:51;151435.03;;;15.75;38.12
12358;BME280;6243;51.244;6.774;2023-04-06T08:16:17;151622.72;;;16.49;38.20
12358;BME280;6243;51.244;6.774;2023-04-06T08:18:43;151765.84;;;17.05;37.61
12358;BME280;6243;51.244;6.774;2023-04-06T08:21:08;152027.91;;;18.08;36.68
12358;BME280;6243;51.244;6.774;2023-04-06T08:23:34;151815.69;;;17.25;37.04
12358;BME280;6243;51.244;6.774;2023-04-06T08:25:59;151926.91;;;17.68;36.78
12358;BME280;6243;51.244;6.774;2023-04-06T08:28:26;151750.53;;;16.99;37.42
12358;BME280;6243;51.244;6.774;2023-04-06T08:30:51;152027.91;;;18.08;36.47
12358;BME280;6243;51.244;6.774;2023-04-06T08:33:17;151906.47;;;17.60;36.96
12358;BME280;6243;51.244;6.774;2023-04-06T08:35:42;151879.59;;;17.50;37.46
12358;BME280;6243;51.244;6.774;2023-04-06T08:38:08;152207.00;;;18.79;36.25
12358;BME280;6243;51.244;6.774;2023-04-06T08:40:36;151981.88;;;17.90;37.29
12358;BME280;6243;51.244;6.774;2023-04-06T08:43:03;151718.56;;;16.86;38.42
12358;BME280;6243;51.244;6.774;2023-04-06T08:45:32;151583.16;;;16.33;39.14
12358;BME280;6243;51.244;6.774;2023-04-06T08:47:59;151952.47;;;17.79;38.13
12358;BME280;6243;51.244;6.774;2023-04-06T08:50:25;152114.88;;;18.42;37.22
12358;BME280;6243;51.244;6.774;2023-04-06T08:52:51;152249.25;;;18.95;36.30
12358;BME280;6243;51.244;6.774;2023-04-06T08:55:17;152236.44;;;18.90;36.52
12358;BME280;6243;51.244;6.774;2023-04-06T08:57:43;151906.47;;;17.60;37.54
12358;BME280;6243;51.244;6.774;2023-04-06T09:00:12;151747.94;;;16.98;37.89
12358;BME280;6243;51.244;6.774;2023-04-06T09:02:42;151735.16;;;16.93;38.35
12358;BME280;6243;51.244;6.774;2023-04-06T09:05:08;151966.56;;;17.84;37.38
12358;BME280;6243;51.244;6.774;2023-04-06T09:07:34;151971.66;;;17.86;37.35
12358;BME280;6243;51.244;6.774;2023-04-06T09:10:00;151791.41;;;17.15;37.42
12358;BME280;6243;51.244;6.774;2023-04-06T09:12:27;151925.66;;;17.68;37.32
12358;BME280;6243;51.244;6.774;2023-04-06T09:14:52;152059.84;;;18.21;36.93
12358;BME280;6243;51.244;6.774;2023-04-06T09:17:22;151905.19;;;17.60;37.05
12358;BME280;6243;51.244;6.774;2023-04-06T09:19:49;151909.00;;;17.61;37.51
12358;BME280;6243;51.244;6.774;2023-04-06T09:22:15;151885.97;;;17.52;37.52
12358;BME280;6243;51.244;6.774;2023-04-06T09:24:42;152236.44;;;18.90;36.70
12358;BME280;6243;51.244;6.774;2023-04-06T09:27:08;152341.38;;;19.32;35.92
12358;BME280;6243;51.244;6.774;2023-04-06T09:29:34;152390.03;;;19.51;35.72
12358;BME280;6243;51.244;6.774;2023-04-06T09:32:03;151992.09;;;17.94;37.19
12358;BME280;6243;51.244;6.774;2023-04-06T09:34:29;151974.19;;;17.87;37.59
12358;BME280;6243;51.244;6.774;2023-04-06T09:36:56;152315.75;;;19.22;36.18
12358;BME280;6243;51.244;6.774;2023-04-06T09:39:22;152190.38;;;18.72;36.16
12358;BME280;6243;51.244;6.774;2023-04-06T09:41:50;152075.22;;;18.27;36.46
12358;BME280;6243;51.244;6.774;2023-04-06T09:44:16;151978.06;;;17.89;36.71
12358;BME280;6243;51.244;6.774;2023-04-06T09:46:42;152186.56;;;18.71;36.46
12358;BME280;6243;51.244;6.774;2023-04-06T09:49:09;152294.00;;;19.13;36.31
12358;BME280;6243;51.244;6.774;2023-04-06T09:51:37;152434.88;;;19.68;35.87
12358;BME280;6243;51.244;6.774;2023-04-06T09:54:05;152374.69;;;19.45;35.58
12358;BME280;6243;51.244;6.774;2023-04-06T09:56:37;152497.59;;;19.93;35.29
12358;BME280;6243;51.244;6.774;2023-04-06T09:59:08;152341.38;;;19.32;35.61
12358;BME280;6243;51.244;6.774;2023-04-06T10:01:37;152478.38;;;19.86;35.26
12358;BME280;6243;51.244;6.774;2023-04-06T10:04:13;152392.63;;;19.52;35.85
12358;BME280;6243;51.244;6.774;2023-04-06T10:06:43;152683.34;;;20.66;34.77
12358;BME280;6243;51.244;6.774;2023-04-06T10:09:12;152641.06;;;20.49;34.80
12358;BME280;6243;51.244;6.774;2023-04-06T10:11:38;152556.50;;;20.16;35.00
12358;BME280;6243;51.244;6.774;2023-04-06T10:14:03;152543.69;;;20.11;34.72
12358;BME280;6243;51.244;6.774;2023-04-06T10:16:30;152814.06;;;21.17;34.09
12358;BME280;6243;51.244;6.774;2023-04-06T10:18:59;152675.66;;;20.63;34.64
12358;BME280;6243;51.244;6.774;2023-04-06T10:21:27;152873.03;;;21.41;34.20
12358;BME280;6243;51.244;6.774;2023-04-06T10:23:58;152653.88;;;20.55;35.23
12358;BME280;6243;51.244;6.774;2023-04-06T10:26:26;152719.25;;;20.80;35.41
12358;BME280;6243;51.244;6.774;2023-04-06T10:28:51;152427.19;;;19.65;36.12
12358;BME280;6243;51.244;6.774;2023-04-06T10:31:24;152765.38;;;20.98;35.45
12358;BME280;6243;51.244;6.774;2023-04-06T10:33:53;152602.66;;;20.34;35.36
12358;BME280;6243;51.244;6.774;2023-04-06T10:36:22;152864.09;;;21.37;34.27
12358;BME280;6243;51.244;6.774;2023-04-06T10:38:54;152730.78;;;20.85;34.77
12358;BME280;6243;51.244;6.774;2023-04-06T10:41:19;152844.84;;;21.30;33.83
12358;BME280;6243;51.244;6.774;2023-04-06T10:43:55;152847.44;;;21.31;34.34
12358;BME280;6243;51.244;6.774;2023-04-06T10:46:24;152843.56;;;21.29;34.34
12358;BME280;6243;51.244;6.774;2023-04-06T10:48:50;152605.19;;;20.35;35.37
12358;BME280;6243;51.244;6.774;2023-04-06T10:51:17;152574.50;;;20.23;36.11
12358;BME280;6243;51.244;6.774;2023-04-06T10:53:44;152879.47;;;21.43;34.69
12358;BME280;6243;51.244;6.774;2023-04-06T10:56:10;152805.13;;;21.14;34.69
12358;BME280;6243;51.244;6.774;2023-04-06T10:58:36;152893.59;;;21.49;34.28
12358;BME280;6243;51.244;6.774;2023-04-06T11:01:03;152748.72;;;20.92;34.88
12358;BME280;6243;51.244;6.774;2023-04-06T11:03:29;152702.59;;;20.74;35.37
12358;BME280;6243;51.244;6.774;2023-04-06T11:05:55;152934.59;;;21.65;34.82
12358;BME280;6243;51.244;6.774;2023-04-06T11:08:25;153157.78;;;22.52;34.17
12358;BME280;6243;51.244;6.774;2023-04-06T11:10:51;152956.38;;;21.73;34.92
12358;BME280;6243;51.244;6.774;2023-04-06T11:13:17;153134.69;;;22.43;34.51
12358;BME280;6243;51.244;6.774;2023-04-06T11:15:43;153252.78;;;22.90;34.28
12358;BME280;6243;51.244;6.774;2023-04-06T11:18:10;152742.31;;;20.89;35.99
12358;BME280;6243;51.244;6.774;2023-04-06T11:20:35;153105.19;;;22.32;35.11
12358;BME280;6243;51.244;6.774;2023-04-06T11:23:01;153159.06;;;22.53;34.69
12358;BME280;6243;51.244;6.774;2023-04-06T11:25:26;152949.97;;;21.71;35.68
12358;BME280;6243;51.244;6.774;2023-04-06T11:27:52;153206.59;;;22.72;34.91
12358;BME280;6243;51.244;6.774;2023-04-06T11:30:18;153129.56;;;22.41;35.13
12358;BME280;6243;51.244;6.774;2023-04-06T11:32:44;152994.88;;;21.88;35.57
12358;BME280;6243;51.244;6.774;2023-04-06T11:35:21;153179.66;;;22.61;35.01
12358;BME280;6243;51.244;6.774;2023-04-06T11:37:48;153189.91;;;22.65;35.28
12358;BME280;6243;51.244;6.774;2023-04-06T11:40:14;153268.16;;;22.96;34.92
12358;BME280;6243;51.244;6.774;2023-04-06T11:42:40;153400.44;;;23.48;34.63
12358;BME280;6243;51.244;6.774;2023-04-06T11:45:07;153433.81;;;23.61;34.58
12358;BME280;6243;51.244;6.774;2023-04-06T11:47:34;153382.47;;;23.41;34.67
12358;BME280;6243;51.244;6.774;2023-04-06T11:50:06;153349.00;;;23.27;35.03
12358;BME280;6243;51.244;6.774;2023-04-06T11:52:33;153347.78;;;23.27;35.19
12358;BME280;6243;51.244;6.774;2023-04-06T11:55:10;153251.50;;;22.89;35.71
12358;BME280;6243;51.244;6.774;2023-04-06T11:57:36;153408.13;;;23.51;35.14
12358;BME280;6243;51.244;6.774;2023-04-06T12:00:02;153364.44;;;23.34;35.31
12358;BME280;6243;51.244;6.774;2023-04-06T12:02:28;153458.22;;;23.70;35.22
12358;BME280;6243;51.244;6.774;2023-04-06T12:04:53;153275.88;;;22.99;35.83
12358;BME280;6243;51.244;6.774;2023-04-06T12:07:19;153283.59;;;23.02;35.00
12358;BME280;6243;51.244;6.774;2023-04-06T12:09:45;153318.25;;;23.15;34.83
12358;BME280;6243;51.244;6.774;2023-04-06T12:12:12;153205.31;;;22.71;35.40
12358;BME280;6243;51.244;6.774;2023-04-06T12:14:38;153322.06;;;23.17;34.84
12358;BME280;6243;51.244;6.774;2023-04-06T12:17:03;152924.31;;;21.61;36.02
12358;BME280;6243;51.244;6.774;2023-04-06T12:19:29;153282.31;;;23.01;34.87
12358;BME280;6243;51.244;6.774;2023-04-06T12:21:54;153143.69;;;22.47;34.81
12358;BME280;6243;51.244;6.774;2023-04-06T12:24:20;153169.31;;;22.57;35.11
12358;BME280;6243;51.244;6.774;2023-04-06T12:26:47;153391.44;;;23.44;34.40
12358;BME280;6243;51.244;6.774;2023-04-06T12:29:13;153469.78;;;23.75;34.14
12358;BME280;6243;51.244;6.774;2023-04-06T12:31:39;153422.25;;;23.56;33.60
12358;BME280;6243;51.244;6.774;2023-04-06T12:34:04;153494.13;;;23.84;33.73
12358;BME280;6243;51.244;6.774;2023-04-06T12:36:30;153431.22;;;23.60;33.90
12358;BME280;6243;51.244;6.774;2023-04-06T12:38:55;153490.28;;;23.83;34.09
12358;BME280;6243;51.244;6.774;2023-04-06T12:41:21;153501.84;;;23.87;33.73
12358;BME280;6243;51.244;6.774;2023-04-06T12:43:48;153417.13;;;23.54;33.94
12358;BME280;6243;51.244;6.774;2023-04-06T12:46:14;153431.22;;;23.60;34.07
12358;BME280;6243;51.244;6.774;2023-04-06T12:48:39;153460.75;;;23.71;34.32
12358;BME280;6243;51.244;6.774;2023-04-06T12:51:05;153241.22;;;22.85;34.95
12358;BME280;6243;51.244;6.774;2023-04-06T12:53:31;153230.97;;;22.81;35.08